sensor_id;sensor_type;location;lat;lon;timestamp;P1;P2;P0
58740;PMS7003;44512;53.046;18.604;2022-12-07T00:00:35;20;17;12
58740;PMS7003;44512;53.046;18.604;2022-12-07T00:11:07;16;15;9
58740;PMS7003;44512;53.046;18.604;2022-12-07T00:21:33;14;10;8
58740;PMS7003;44512;53.046;18.604;2022-12-07T00:32:00;16;8;6
58740;PMS7003;44512;53.046;18.604;2022-12-07T00:42:29;11;7;6
58740;PMS7003;44512;53.046;18.604;2022-12-07T00:52:57;12;8;6
58740;PMS7003;44512;53.046;18.604;2022-12-07T01:03:25;9;6;5
58740;PMS7003;44512;53.046;18.604;2022-12-07T01:13:55;15;8;6
58740;PMS7003;44512;53.046;18.604;2022-12-07T01:24:22;10;7;5
58740;PMS7003;44512;53.046;18.604;2022-12-07T01:34:50;14;9;7
58740;PMS7003;44512;53.046;18.604;2022-12-07T01:55:47;10;6;5
58740;PMS7003;44512;53.046;18.604;2022-12-07T02:06:16;11;10;7
58740;PMS7003;44512;53.046;18.604;2022-12-07T02:27:20;8;7;6
58740;PMS7003;44512;53.046;18.604;2022-12-07T02:48:10;10;6;5
58740;PMS7003;44512;53.046;18.604;2022-12-07T03:19:34;12;6;5
58740;PMS7003;44512;53.046;18.604;2022-12-07T03:30:07;10;9;6
58740;PMS7003;44512;53.046;18.604;2022-12-07T04:01:28;7;6;4
58740;PMS7003;44512;53.046;18.604;2022-12-07T04:11:56;10;9;6
58740;PMS7003;44512;53.046;18.604;2022-12-07T04:22:25;16;12;9
58740;PMS7003;44512;53.046;18.604;2022-12-07T04:32:53;19;12;8
58740;PMS7003;44512;53.046;18.604;2022-12-07T04:43:22;15;12;9
58740;PMS7003;44512;53.046;18.604;2022-12-07T04:53:50;16;12;8
58740;PMS7003;44512;53.046;18.604;2022-12-07T05:04:19;12;10;7
58740;PMS7003;44512;53.046;18.604;2022-12-07T05:14:47;13;9;6
58740;PMS7003;44512;53.046;18.604;2022-12-07T05:25:15;18;11;9
58740;PMS7003;44512;53.046;18.604;2022-12-07T05:35:44;20;16;12
58740;PMS7003;44512;53.046;18.604;2022-12-07T05:46:12;18;14;10
58740;PMS7003;44512;53.046;18.604;2022-12-07T05:56:41;12;9;7
58740;PMS7003;44512;53.046;18.604;2022-12-07T06:07:10;9;8;6
58740;PMS7003;44512;53.046;18.604;2022-12-07T06:17:37;10;8;5
58740;PMS7003;44512;53.046;18.604;2022-12-07T06:28:06;9;7;5
58740;PMS7003;44512;53.046;18.604;2022-12-07T06:38:34;10;7;4
58740;PMS7003;44512;53.046;18.604;2022-12-07T06:49:03;9;8;6
58740;PMS7003;44512;53.046;18.604;2022-12-07T06:59:31;12;8;6
58740;PMS7003;44512;53.046;18.604;2022-12-07T07:09:59;11;9;7
58740;PMS7003;44512;53.046;18.604;2022-12-07T07:20:28;23;16;12
58740;PMS7003;44512;53.046;18.604;2022-12-07T07:30:56;15;12;8
58740;PMS7003;44512;53.046;18.604;2022-12-07T07:41:25;15;10;8
58740;PMS7003;44512;53.046;18.604;2022-12-07T07:51:53;19;12;8
58740;PMS7003;44512;53.046;18.604;2022-12-07T08:02:22;16;10;8
58740;PMS7003;44512;53.046;18.604;2022-12-07T08:12:50;14;12;9
58740;PMS7003;44512;53.046;18.604;2022-12-07T08:23:19;23;14;10
58740;PMS7003;44512;53.046;18.604;2022-12-07T08:33:47;17;13;9
58740;PMS7003;44512;53.046;18.604;2022-12-07T08:44:15;15;9;5
58740;PMS7003;44512;53.046;18.604;2022-12-07T08:54:43;21;13;10
58740;PMS7003;44512;53.046;18.604;2022-12-07T09:05:12;17;15;11
58740;PMS7003;44512;53.046;18.604;2022-12-07T09:15:40;20;15;10
58740;PMS7003;44512;53.046;18.604;2022-12-07T09:26:09;17;13;10
58740;PMS7003;44512;53.046;18.604;2022-12-07T09:41:13;0;0;0
58740;PMS7003;44512;53.046;18.604;2022-12-07T10:01:27;12;10;8
58740;PMS7003;44512;53.046;18.604;2022-12-07T10:11:31;15;10;6
58740;PMS7003;44512;53.046;18.604;2022-12-07T10:21:32;14;11;8
58740;PMS7003;44512;53.046;18.604;2022-12-07T10:31:33;17;13;9
58740;PMS7003;44512;53.046;18.604;2022-12-07T10:51:56;19;14;11
58740;PMS7003;44512;53.046;18.604;2022-12-07T11:12:27;16;12;7
58740;PMS7003;44512;53.046;18.604;2022-12-07T11:53:34;19;11;6
58740;PMS7003;44512;53.046;18.604;2022-12-07T12:03:30;20;16;10
58740;PMS7003;44512;53.046;18.604;2022-12-07T12:23:56;20;17;12
58740;PMS7003;44512;53.046;18.604;2022-12-07T12:34:04;23;19;14
58740;PMS7003;44512;53.046;18.604;2022-12-07T12:54:28;15;13;9
58740;PMS7003;44512;53.046;18.604;2022-12-07T13:04:47;18;15;10
58740;PMS7003;44512;53.046;18.604;2022-12-07T13:45:25;19;15;12
58740;PMS7003;44512;53.046;18.604;2022-12-07T13:55:44;20;17;12
58740;PMS7003;44512;53.046;18.604;2022-12-07T14:05:48;21;16;11
58740;PMS7003;44512;53.046;18.604;2022-12-07T14:15:59;24;20;13
58740;PMS7003;44512;53.046;18.604;2022-12-07T14:36:14;29;24;17
58740;PMS7003;44512;53.046;18.604;2022-12-07T14:46:16;29;23;17
58740;PMS7003;44512;53.046;18.604;2022-12-07T14:56:17;28;22;15
58740;PMS7003;44512;53.046;18.604;2022-12-07T15:06:31;26;21;15
58740;PMS7003;44512;53.046;18.604;2022-12-07T15:16:59;26;21;14
58740;PMS7003;44512;53.046;18.604;2022-12-07T15:27:28;24;20;13
58740;PMS7003;44512;53.046;18.604;2022-12-07T15:37:56;20;18;12
58740;PMS7003;44512;53.046;18.604;2022-12-07T15:48:25;24;20;14
58740;PMS7003;44512;53.046;18.604;2022-12-07T15:58:53;21;15;11
58740;PMS7003;44512;53.046;18.604;2022-12-07T16:09:21;19;16;12
58740;PMS7003;44512;53.046;18.604;2022-12-07T16:19:50;22;19;14
58740;PMS7003;44512;53.046;18.604;2022-12-07T16:30:18;22;17;11
58740;PMS7003;44512;53.046;18.604;2022-12-07T16:40:47;26;22;14
58740;PMS7003;44512;53.046;18.604;2022-12-07T16:51:15;27;23;15
58740;PMS7003;44512;53.046;18.604;2022-12-07T17:01:44;33;25;17
58740;PMS7003;44512;53.046;18.604;2022-12-07T17:12:12;34;23;15
58740;PMS7003;44512;53.046;18.604;2022-12-07T17:22:40;22;16;12
58740;PMS7003;44512;53.046;18.604;2022-12-07T17:33:09;25;16;11
58740;PMS7003;44512;53.046;18.604;2022-12-07T17:43:38;23;18;12
58740;PMS7003;44512;53.046;18.604;2022-12-07T17:54:06;19;18;14
58740;PMS7003;44512;53.046;18.604;2022-12-07T18:04:34;25;21;16
58740;PMS7003;44512;53.046;18.604;2022-12-07T18:15:03;20;16;12
58740;PMS7003;44512;53.046;18.604;2022-12-07T18:25:31;22;17;11
58740;PMS7003;44512;53.046;18.604;2022-12-07T18:36:00;19;15;10
58740;PMS7003;44512;53.046;18.604;2022-12-07T18:46:28;23;19;14
58740;PMS7003;44512;53.046;18.604;2022-12-07T18:56:56;20;14;12
58740;PMS7003;44512;53.046;18.604;2022-12-07T19:07:25;15;13;10
58740;PMS7003;44512;53.046;18.604;2022-12-07T19:17:53;13;11;9
58740;PMS7003;44512;53.046;18.604;2022-12-07T19:28:22;17;15;10
58740;PMS7003;44512;53.046;18.604;2022-12-07T19:38:50;15;12;9
58740;PMS7003;44512;53.046;18.604;2022-12-07T19:49:19;13;9;6
58740;PMS7003;44512;53.046;18.604;2022-12-07T19:59:47;11;8;7
58740;PMS7003;44512;53.046;18.604;2022-12-07T20:10:15;14;12;9
58740;PMS7003;44512;53.046;18.604;2022-12-07T20:31:13;13;12;8
58740;PMS7003;44512;53.046;18.604;2022-12-07T20:41:41;10;8;6
58740;PMS7003;44512;53.046;18.604;2022-12-07T20:52:09;9;6;5
58740;PMS7003;44512;53.046;18.604;2022-12-07T21:02:38;7;6;5
58740;PMS7003;44512;53.046;18.604;2022-12-07T21:13:06;10;8;7
58740;PMS7003;44512;53.046;18.604;2022-12-07T21:23:34;10;8;7
58740;PMS7003;44512;53.046;18.604;2022-12-07T21:34:03;11;9;7
58740;PMS7003;44512;53.046;18.604;2022-12-07T21:44:32;13;9;7
58740;PMS7003;44512;53.046;18.604;2022-12-07T21:54:59;16;10;7
58740;PMS7003;44512;53.046;18.604;2022-12-07T22:05:28;11;10;7
58740;PMS7003;44512;53.046;18.604;2022-12-07T22:15:56;11;9;6
58740;PMS7003;44512;53.046;18.604;2022-12-07T22:26:25;10;9;7
58740;PMS7003;44512;53.046;18.604;2022-12-07T22:36:53;13;10;8
58740;PMS7003;44512;53.046;18.604;2022-12-07T22:47:22;13;11;7
58740;PMS7003;44512;53.046;18.604;2022-12-07T22:57:50;18;12;9
58740;PMS7003;44512;53.046;18.604;2022-12-07T23:08:18;12;8;7
58740;PMS7003;44512;53.046;18.604;2022-12-07T23:18:47;9;7;5
58740;PMS7003;44512;53.046;18.604;2022-12-07T23:29:15;12;9;6
58740;PMS7003;44512;53.046;18.604;2022-12-07T23:39:44;12;10;7
58740;PMS7003;44512;53.046;18.604;2022-12-07T23:50:12;11;7;5
